Time;durP1;ratioP1;P1;durP2;ratioP2;P2;SDS_P1;SDS_P2;PMS_P1;PMS_P2;Temp;Humidity;BMP_temperature;BMP_pressure;BME280_temperature;BME280_humidity;BME280_pressure;Samples;Min_cycle;Max_cycle;Signal;HPM_P1;HPM_P2
2022/01/28 00:00:49;;;;;;;16.63;4.20;;;5.00;99.90;;;;;;5141412;27;20458;-63
2022/01/28 00:03:17;;;;;;;14.30;5.47;;;5.00;99.90;;;;;;5141636;27;20472;-63
2022/01/28 00:05:45;;;;;;;12.97;3.10;;;5.00;99.90;;;;;;5140703;27;20545;-63
2022/01/28 00:08:12;;;;;;;15.53;3.93;;;4.90;99.90;;;;;;5140724;27;20489;-63
2022/01/28 00:10:40;;;;;;;21.93;4.10;;;4.90;99.90;;;;;;5140588;27;20443;-63
2022/01/28 00:13:20;;;;;;;15.30;4.87;;;4.90;99.90;;;;;;5141280;27;20512;-63
2022/01/28 00:16:02;;;;;;;18.10;5.50;;;4.90;99.90;;;;;;5141066;27;20437;-63
2022/01/28 00:38:04;;;;;;;10.93;4.90;;;4.80;99.90;;;;;;5139913;27;20562;-63
2022/01/28 00:40:36;;;;;;;9.97;4.90;;;4.80;99.90;;;;;;5140624;27;20551;-63
2022/01/28 00:43:05;;;;;;;15.23;6.13;;;4.90;99.90;;;;;;5141458;27;20774;-63
2022/01/28 00:45:32;;;;;;;11.93;5.20;;;4.80;99.90;;;;;;5141459;27;20458;-63
2022/01/28 00:48:02;;;;;;;14.33;4.43;;;4.80;99.90;;;;;;5140941;27;20955;-63
2022/01/28 00:50:29;;;;;;;23.00;5.80;;;4.80;99.90;;;;;;5141076;27;20489;-63
2022/01/28 00:52:57;;;;;;;12.77;5.00;;;4.80;99.90;;;;;;5141176;27;20507;-63
2022/01/28 00:55:24;;;;;;;13.30;4.93;;;4.80;99.90;;;;;;5141125;27;20939;-63
2022/01/28 00:57:52;;;;;;;14.40;5.27;;;4.80;99.90;;;;;;5140173;27;20875;-63
2022/01/28 01:00:22;;;;;;;13.27;6.17;;;4.80;99.90;;;;;;5140456;27;20814;-63
2022/01/28 01:02:50;;;;;;;12.67;5.93;;;4.80;99.90;;;;;;5140203;27;20896;-63
2022/01/28 01:05:17;;;;;;;12.50;5.53;;;4.80;99.90;;;;;;5141025;27;20464;-63
2022/01/28 01:07:44;;;;;;;14.33;6.00;;;4.80;99.90;;;;;;5139954;27;20857;-63
2022/01/28 01:10:13;;;;;;;11.20;5.97;;;4.80;99.90;;;;;;5140533;27;20461;-63
2022/01/28 01:12:43;;;;;;;21.40;6.80;;;4.70;99.90;;;;;;5139131;27;20463;-63
2022/01/28 01:15:13;;;;;;;10.27;5.60;;;4.70;99.90;;;;;;5136892;27;20547;-63
2022/01/28 01:17:46;;;;;;;12.70;6.67;;;4.70;99.90;;;;;;5138340;27;20462;-63
2022/01/28 01:20:34;;;;;;;20.23;6.20;;;4.70;99.90;;;;;;5136477;27;20454;-63
2022/01/28 01:23:10;;;;;;;15.17;5.67;;;4.70;99.90;;;;;;5132610;27;20466;-63
2022/01/28 01:25:48;;;;;;;13.47;5.20;;;4.70;99.90;;;;;;5140465;27;20477;-63
2022/01/28 01:30:58;;;;;;;22.73;5.30;;;4.60;99.90;;;;;;5136845;27;20462;-63
2022/01/28 01:33:26;;;;;;;16.67;4.70;;;4.60;99.90;;;;;;5139723;27;20462;-63
2022/01/28 01:35:53;;;;;;;11.60;5.33;;;4.60;99.90;;;;;;5137686;27;20474;-63
2022/01/28 01:38:24;;;;;;;17.40;5.73;;;4.60;99.90;;;;;;5139142;27;20485;-63
2022/01/28 01:40:56;;;;;;;12.57;4.63;;;4.60;99.90;;;;;;5139056;27;20490;-63
2022/01/28 01:43:38;;;;;;;12.80;4.00;;;4.60;99.90;;;;;;5140104;27;20549;-63
2022/01/28 01:46:16;;;;;;;16.10;3.93;;;4.60;99.90;;;;;;5140232;27;20558;-63
2022/01/28 01:54:12;;;;;;;16.33;4.60;;;4.50;99.90;;;;;;5139689;27;20514;-63
2022/01/28 01:56:44;;;;;;;24.90;4.87;;;4.50;99.90;;;;;;5139181;27;20454;-63
2022/01/28 01:59:11;;;;;;;19.83;4.30;;;4.40;99.90;;;;;;5139160;27;20531;-63
2022/01/28 02:01:39;;;;;;;15.77;4.40;;;4.30;99.90;;;;;;5139895;27;20458;-63
2022/01/28 02:04:06;;;;;;;15.20;4.00;;;4.30;99.90;;;;;;5139263;27;20545;-63
2022/01/28 02:06:33;;;;;;;9.60;3.70;;;4.20;99.90;;;;;;5139317;27;20553;-63
2022/01/28 02:09:00;;;;;;;18.90;5.80;;;4.20;99.90;;;;;;5139713;27;20772;-63
2022/01/28 02:11:27;;;;;;;13.83;4.33;;;4.10;99.90;;;;;;5138506;27;20459;-63
2022/01/28 02:13:55;;;;;;;13.93;5.10;;;4.00;99.90;;;;;;5138993;27;20968;-63
2022/01/28 02:16:23;;;;;;;22.47;5.60;;;4.00;99.90;;;;;;5138965;27;20462;-63
2022/01/28 02:18:50;;;;;;;15.87;3.80;;;3.90;99.90;;;;;;5139341;27;20451;-63
2022/01/28 02:21:19;;;;;;;15.13;4.37;;;3.90;99.90;;;;;;5138219;27;20458;-63
2022/01/28 02:23:50;;;;;;;19.00;4.73;;;3.90;99.90;;;;;;5139397;27;20564;-63
2022/01/28 02:26:18;;;;;;;12.10;3.40;;;3.90;99.90;;;;;;5138619;27;20825;-63
2022/01/28 02:28:48;;;;;;;14.43;3.90;;;3.90;99.90;;;;;;5138844;27;20636;-63
2022/01/28 02:31:21;;;;;;;9.10;3.30;;;3.90;99.90;;;;;;5138513;27;20928;-63
2022/01/28 02:33:50;;;;;;;11.17;4.20;;;4.00;99.90;;;;;;5139639;27;20462;-62
2022/01/28 02:36:18;;;;;;;21.13;3.90;;;3.90;99.90;;;;;;5138304;27;20463;-63
2022/01/28 02:38:45;;;;;;;13.87;5.10;;;4.00;99.90;;;;;;5138727;27;20462;-62
2022/01/28 02:41:13;;;;;;;15.10;4.90;;;3.90;99.90;;;;;;5138300;27;20527;-62
2022/01/28 02:43:44;;;;;;;14.70;5.97;;;4.00;99.90;;;;;;5138840;27;20564;-62
2022/01/28 02:46:14;;;;;;;20.13;5.73;;;4.10;99.90;;;;;;5138744;27;20840;-62
2022/01/28 02:48:52;;;;;;;21.07;4.00;;;4.10;99.90;;;;;;5138682;28;20886;-62
2022/01/28 02:51:22;;;;;;;8.63;3.73;;;4.10;99.90;;;;;;5138612;28;20526;-62
2022/01/28 02:53:53;;;;;;;15.20;4.70;;;4.10;99.90;;;;;;5138877;27;20901;-62
2022/01/28 02:56:24;;;;;;;14.27;3.73;;;4.20;99.90;;;;;;5138572;28;20492;-62
2022/01/28 02:58:51;;;;;;;13.57;4.63;;;4.20;99.90;;;;;;5125058;28;20640;-62
2022/01/28 03:01:20;;;;;;;15.13;3.70;;;4.20;99.90;;;;;;5118298;28;20891;-62
2022/01/28 03:03:49;;;;;;;12.53;4.07;;;4.20;99.90;;;;;;5134890;28;20466;-62
2022/01/28 03:06:18;;;;;;;11.17;3.80;;;4.20;99.90;;;;;;5138554;28;20531;-62
2022/01/28 03:08:53;;;;;;;12.00;4.70;;;4.20;99.90;;;;;;5138929;28;20433;-62
2022/01/28 03:14:21;;;;;;;16.03;4.03;;;4.20;99.90;;;;;;5091534;28;20953;-62
2022/01/28 03:19:48;;;;;;;12.17;3.70;;;4.20;99.90;;;;;;5138090;28;20419;-62
2022/01/28 03:22:15;;;;;;;16.53;3.40;;;4.10;99.90;;;;;;5138370;28;20462;-62
2022/01/28 03:24:47;;;;;;;10.90;4.60;;;4.10;99.90;;;;;;5137841;28;20507;-62
2022/01/28 03:27:26;;;;;;;11.97;3.67;;;4.00;99.90;;;;;;5138243;28;20470;-62
2022/01/28 03:29:53;;;;;;;15.57;3.47;;;4.00;99.90;;;;;;5138502;28;20989;-62
2022/01/28 03:32:20;;;;;;;16.53;4.73;;;3.90;99.90;;;;;;5138796;28;20433;-62
2022/01/28 03:34:47;;;;;;;18.40;4.70;;;3.90;99.90;;;;;;5137718;28;20441;-62
2022/01/28 03:37:15;;;;;;;13.17;4.30;;;3.90;99.90;;;;;;5119076;28;20795;-62
2022/01/28 03:39:43;;;;;;;13.73;4.40;;;4.00;99.90;;;;;;5138072;28;20454;-62
2022/01/28 03:42:16;;;;;;;11.73;4.10;;;3.90;99.90;;;;;;5138422;28;20451;-63
2022/01/28 03:44:43;;;;;;;18.93;4.43;;;3.80;99.90;;;;;;5137061;28;20462;-60
2022/01/28 03:47:10;;;;;;;14.43;3.87;;;3.80;99.90;;;;;;5138588;28;20462;-62
2022/01/28 03:49:37;;;;;;;9.37;4.00;;;3.70;99.90;;;;;;5137971;28;20544;-62
2022/01/28 03:52:05;;;;;;;14.20;4.83;;;3.80;99.90;;;;;;5138466;28;20952;-62
2022/01/28 03:54:32;;;;;;;16.83;4.13;;;3.80;99.90;;;;;;5136955;28;20511;-63
2022/01/28 03:57:00;;;;;;;14.33;4.00;;;3.80;99.90;;;;;;5138019;28;20433;-62
2022/01/28 03:59:27;;;;;;;12.27;4.00;;;3.90;99.90;;;;;;5137556;28;20454;-62
2022/01/28 04:01:57;;;;;;;14.23;4.43;;;3.90;99.90;;;;;;5138334;28;20433;-62
2022/01/28 04:12:42;;;;;;;16.43;4.40;;;4.00;99.90;;;;;;5141231;27;20866;-63
2022/01/28 04:15:22;;;;;;;19.23;4.97;;;3.90;99.90;;;;;;5141547;27;20512;-62
2022/01/28 04:17:51;;;;;;;15.73;4.40;;;4.00;99.90;;;;;;5142070;27;20519;-62
2022/01/28 04:20:19;;;;;;;17.80;4.50;;;4.00;99.90;;;;;;5140136;27;20455;-62
2022/01/28 04:22:46;;;;;;;11.47;3.80;;;4.00;99.90;;;;;;5141256;27;20490;-62
2022/01/28 04:25:14;;;;;;;12.63;4.00;;;4.00;99.90;;;;;;5141063;27;20746;-63
2022/01/28 04:27:42;;;;;;;16.30;4.07;;;4.00;99.90;;;;;;5141305;27;20512;-62
2022/01/28 04:30:10;;;;;;;20.27;4.90;;;4.00;99.90;;;;;;5140716;27;20576;-63
2022/01/28 04:32:39;;;;;;;15.90;4.57;;;4.10;99.90;;;;;;5139567;27;20467;-62
2022/01/28 04:35:07;;;;;;;14.30;4.30;;;4.00;99.90;;;;;;5140586;27;20437;-63
2022/01/28 04:37:42;;;;;;;14.53;3.30;;;4.10;99.90;;;;;;5141088;27;20459;-62
2022/01/28 04:40:14;;;;;;;14.03;3.50;;;4.00;99.90;;;;;;5140984;27;20482;-62
2022/01/28 04:42:57;;;;;;;15.73;5.20;;;4.00;99.90;;;;;;5120173;28;20899;-63
2022/01/28 04:45:31;;;;;;;13.30;4.40;;;4.10;99.90;;;;;;5129074;27;20462;-62
2022/01/28 04:48:08;;;;;;;14.63;4.33;;;4.00;99.90;;;;;;5141498;27;20773;-63
2022/01/28 04:50:45;;;;;;;14.47;4.40;;;4.00;99.90;;;;;;5140233;27;20530;-62
2022/01/28 04:56:19;;;;;;;13.13;3.87;;;4.10;99.90;;;;;;5122645;27;20437;-62
2022/01/28 04:59:00;;;;;;;22.70;5.93;;;4.00;99.90;;;;;;5140192;27;20796;-62
2022/01/28 05:01:52;;;;;;;17.70;4.50;;;4.00;99.90;;;;;;5140619;27;20493;-62
2022/01/28 05:04:43;;;;;;;17.07;4.70;;;4.00;99.90;;;;;;5140452;27;20454;-62
2022/01/28 05:24:21;;;;;;;25.30;4.60;;;3.90;99.90;;;;;;5140416;27;20975;-62
2022/01/28 05:26:57;;;;;;;16.63;4.97;;;3.80;99.90;;;;;;5140319;27;20769;-62
2022/01/28 05:29:24;;;;;;;16.00;5.93;;;3.70;99.90;;;;;;5139777;27;20521;-62
2022/01/28 05:31:53;;;;;;;7.43;3.83;;;3.70;99.90;;;;;;5139963;27;20530;-62
2022/01/28 05:34:23;;;;;;;15.60;4.43;;;3.60;99.90;;;;;;5140052;27;20463;-62
2022/01/28 05:36:51;;;;;;;17.40;5.00;;;3.60;99.90;;;;;;5123565;27;20466;-62
2022/01/28 05:39:18;;;;;;;8.53;3.80;;;3.70;99.90;;;;;;5121124;27;20464;-62
2022/01/28 05:41:45;;;;;;;20.17;4.40;;;3.70;99.90;;;;;;5139300;27;20483;-62
2022/01/28 05:44:12;;;;;;;13.37;4.20;;;3.70;99.90;;;;;;5138285;27;20511;-62
2022/01/28 05:46:39;;;;;;;17.47;4.73;;;3.70;99.90;;;;;;5138419;27;20491;-62
2022/01/28 05:49:08;;;;;;;16.97;4.53;;;3.80;99.90;;;;;;5140067;27;20509;-63
2022/01/28 05:51:35;;;;;;;20.57;5.00;;;3.70;99.90;;;;;;5139232;27;20569;-61
2022/01/28 05:54:02;;;;;;;15.50;5.20;;;3.70;99.90;;;;;;5138997;27;20481;-59
2022/01/28 05:56:31;;;;;;;21.63;5.50;;;3.70;99.90;;;;;;5138430;27;20507;-58
2022/01/28 05:58:58;;;;;;;9.63;4.70;;;3.70;99.90;;;;;;5138658;27;20554;-60
2022/01/28 06:01:25;;;;;;;13.90;4.43;;;3.70;99.90;;;;;;5138005;27;20433;-62
2022/01/28 06:03:56;;;;;;;17.93;5.67;;;3.70;99.90;;;;;;5138191;27;20469;-61
2022/01/28 06:06:24;;;;;;;9.17;3.60;;;3.70;99.90;;;;;;5138225;27;20455;-61
2022/01/28 06:08:53;;;;;;;10.10;4.37;;;3.70;99.90;;;;;;5138921;27;20760;-62
2022/01/28 06:11:21;;;;;;;15.73;5.73;;;3.70;99.90;;;;;;5137841;27;20486;-61
2022/01/28 06:13:48;;;;;;;17.13;4.80;;;3.70;99.90;;;;;;5138926;27;20457;-62
2022/01/28 06:16:16;;;;;;;15.37;5.50;;;3.70;99.90;;;;;;5138197;27;20437;-62
2022/01/28 06:18:44;;;;;;;13.80;4.57;;;3.70;99.90;;;;;;5138940;27;20518;-62
2022/01/28 06:21:11;;;;;;;18.20;4.10;;;3.60;99.90;;;;;;5138215;27;20515;-62
2022/01/28 06:23:40;;;;;;;15.17;4.53;;;3.60;99.90;;;;;;5138792;27;20454;-62
2022/01/28 06:26:07;;;;;;;20.43;5.30;;;3.60;99.90;;;;;;5139001;27;20546;-62
2022/01/28 06:28:34;;;;;;;14.30;4.20;;;3.40;99.90;;;;;;5138355;27;20544;-61
2022/01/28 06:31:04;;;;;;;15.17;5.77;;;3.50;99.90;;;;;;5138631;27;20523;-61
2022/01/28 06:33:31;;;;;;;22.47;5.33;;;3.40;99.90;;;;;;5138343;27;20968;-61
2022/01/28 06:35:58;;;;;;;18.23;5.40;;;3.50;99.90;;;;;;5137758;27;20463;-61
2022/01/28 06:38:26;;;;;;;21.90;5.97;;;3.50;99.90;;;;;;5138666;27;20786;-61
2022/01/28 06:40:54;;;;;;;23.90;5.90;;;3.50;99.90;;;;;;5138199;27;20568;-61
2022/01/28 06:43:21;;;;;;;20.20;5.07;;;3.50;99.90;;;;;;5121778;28;20511;-61
2022/01/28 06:45:48;;;;;;;15.53;5.17;;;3.50;99.90;;;;;;5130174;27;20480;-60
2022/01/28 06:48:17;;;;;;;16.20;4.80;;;3.50;99.90;;;;;;5136372;27;20497;-60
2022/01/28 06:50:45;;;;;;;14.70;6.40;;;3.50;99.90;;;;;;5137231;27;20472;-59
2022/01/28 06:53:14;;;;;;;23.70;4.83;;;3.50;99.90;;;;;;5137228;28;20434;-61
2022/01/28 06:55:42;;;;;;;18.70;5.00;;;3.50;99.90;;;;;;5137764;28;20433;-61
2022/01/28 06:58:11;;;;;;;15.77;4.77;;;3.40;99.90;;;;;;5138522;28;20761;-61
2022/01/28 07:00:40;;;;;;;17.43;5.50;;;3.30;99.90;;;;;;5137017;28;20463;-61
2022/01/28 07:03:08;;;;;;;14.13;5.17;;;3.20;99.90;;;;;;5137098;28;20519;-61
2022/01/28 07:05:35;;;;;;;16.87;5.40;;;3.20;99.90;;;;;;5137408;28;20502;-61
2022/01/28 07:08:05;;;;;;;10.53;4.33;;;3.10;99.90;;;;;;5137778;28;20462;-61
2022/01/28 07:10:36;;;;;;;12.63;5.57;;;3.10;99.90;;;;;;5136244;28;20751;-60
2022/01/28 07:13:03;;;;;;;14.97;4.60;;;3.10;99.90;;;;;;5136530;28;20820;-61
2022/01/28 07:15:32;;;;;;;16.80;5.50;;;3.10;99.90;;;;;;5136803;28;20458;-61
2022/01/28 07:18:01;;;;;;;13.83;4.80;;;3.10;99.90;;;;;;5138068;28;20507;-61
2022/01/28 07:20:30;;;;;;;18.13;4.87;;;3.20;99.90;;;;;;5137970;28;20451;-61
2022/01/28 07:22:57;;;;;;;23.37;5.63;;;3.20;99.90;;;;;;5138685;28;20484;-61
2022/01/28 07:25:26;;;;;;;15.33;5.30;;;3.20;99.90;;;;;;5137236;28;20553;-61
2022/01/28 07:27:54;;;;;;;19.70;4.90;;;3.20;99.90;;;;;;5136858;28;20433;-61
2022/01/28 07:30:24;;;;;;;20.93;4.60;;;3.20;99.90;;;;;;5137164;28;20831;-61
2022/01/28 07:32:52;;;;;;;9.70;5.10;;;3.10;99.90;;;;;;5116804;28;20483;-61
2022/01/28 07:35:20;;;;;;;8.93;4.30;;;3.20;99.90;;;;;;5119867;28;20918;-61
2022/01/28 07:37:48;;;;;;;17.33;5.93;;;3.20;99.90;;;;;;5137482;28;20523;-61
2022/01/28 07:40:16;;;;;;;15.47;5.00;;;3.20;99.90;;;;;;5140764;27;20482;-61
2022/01/28 07:42:44;;;;;;;14.20;4.93;;;3.20;99.90;;;;;;5141818;27;20519;-61
2022/01/28 07:45:14;;;;;;;14.50;5.07;;;3.20;99.90;;;;;;5142088;27;20466;-61
2022/01/28 07:47:43;;;;;;;18.23;5.03;;;3.20;99.90;;;;;;5140872;27;20447;-61
2022/01/28 07:50:15;;;;;;;10.73;3.60;;;3.20;99.90;;;;;;5142275;27;20455;-61
2022/01/28 07:52:42;;;;;;;8.77;4.40;;;3.30;99.90;;;;;;5140897;27;20462;-61
2022/01/28 07:55:13;;;;;;;14.33;4.13;;;3.30;99.90;;;;;;5141607;27;20462;-61
2022/01/28 07:57:41;;;;;;;20.87;4.90;;;3.30;99.90;;;;;;5141575;27;20867;-61
2022/01/28 08:00:10;;;;;;;14.70;4.47;;;3.40;99.90;;;;;;5142422;27;20876;-61
2022/01/28 08:02:37;;;;;;;21.50;4.77;;;3.50;99.90;;;;;;5141331;27;20433;-61
2022/01/28 08:05:08;;;;;;;13.47;4.30;;;3.50;99.90;;;;;;5142215;27;20455;-61
2022/01/28 08:07:36;;;;;;;22.17;4.57;;;3.60;99.90;;;;;;5141820;27;20445;-61
2022/01/28 08:10:04;;;;;;;15.37;4.53;;;3.70;99.90;;;;;;5140843;27;20523;-61
2022/01/28 08:12:32;;;;;;;20.63;4.73;;;3.70;99.90;;;;;;5141004;27;20539;-61
2022/01/28 08:14:59;;;;;;;10.20;3.90;;;3.70;99.90;;;;;;5141311;27;20813;-62
2022/01/28 08:17:26;;;;;;;16.07;5.47;;;3.80;99.90;;;;;;5141441;27;20459;-61
2022/01/28 08:19:53;;;;;;;12.70;4.73;;;3.80;99.90;;;;;;5140729;27;20458;-61
2022/01/28 08:22:20;;;;;;;19.77;4.90;;;3.90;99.90;;;;;;5141068;27;20464;-62
2022/01/28 08:24:56;;;;;;;15.33;5.30;;;3.90;99.90;;;;;;5140890;27;20465;-62
2022/01/28 08:27:23;;;;;;;20.20;4.40;;;3.80;99.90;;;;;;5140850;27;20533;-62
2022/01/28 08:29:52;;;;;;;13.40;4.93;;;3.90;99.90;;;;;;5141084;27;20494;-62
2022/01/28 08:32:19;;;;;;;18.30;5.23;;;3.80;99.90;;;;;;5139945;27;20494;-62
2022/01/28 08:34:46;;;;;;;14.10;6.60;;;3.90;99.90;;;;;;5140562;27;20956;-62
2022/01/28 08:37:13;;;;;;;13.80;5.03;;;4.10;99.90;;;;;;5139846;27;20455;-61
2022/01/28 08:39:42;;;;;;;20.63;5.30;;;4.40;99.90;;;;;;5140922;27;20519;-59
2022/01/28 08:42:13;;;;;;;11.87;4.77;;;4.40;99.90;;;;;;5097950;28;20455;-57
2022/01/28 08:44:43;;;;;;;18.27;4.60;;;4.70;99.90;;;;;;5099834;28;20456;-60
2022/01/28 08:47:10;;;;;;;18.90;5.50;;;4.90;99.90;;;;;;5098305;28;20505;-61
2022/01/28 08:49:37;;;;;;;11.17;5.70;;;5.00;99.90;;;;;;5098276;28;20533;-57
2022/01/28 08:52:05;;;;;;;13.53;4.00;;;5.00;99.90;;;;;;5098551;28;20933;-60
2022/01/28 08:54:34;;;;;;;19.47;4.30;;;5.30;99.90;;;;;;5097804;28;20510;-59
2022/01/28 08:57:01;;;;;;;10.00;4.17;;;5.50;99.90;;;;;;5098892;28;20475;-61
2022/01/28 08:59:29;;;;;;;15.90;5.17;;;5.40;99.90;;;;;;5099325;28;20495;-61
2022/01/28 09:01:56;;;;;;;13.97;4.63;;;5.50;99.90;;;;;;5098707;28;20463;-62
2022/01/28 09:04:26;;;;;;;11.97;4.97;;;5.50;99.90;;;;;;5098297;28;20505;-60
2022/01/28 09:06:59;;;;;;;18.03;5.57;;;5.40;99.90;;;;;;5098031;28;20460;-62
2022/01/28 09:09:28;;;;;;;21.20;4.90;;;5.50;99.90;;;;;;5099547;28;20464;-61
2022/01/28 09:12:08;;;;;;;15.80;4.30;;;5.70;99.90;;;;;;5098033;28;20527;-61
2022/01/28 09:14:36;;;;;;;14.90;4.70;;;5.70;99.90;;;;;;5095789;28;20885;-61
2022/01/28 09:17:05;;;;;;;12.17;4.40;;;6.00;99.90;;;;;;5098614;28;20793;-61
2022/01/28 09:19:35;;;;;;;13.20;5.10;;;5.80;99.90;;;;;;5098921;28;20471;-62
2022/01/28 09:22:05;;;;;;;17.17;5.47;;;5.80;13.40;;;;;;5098639;28;20457;-61
2022/01/28 09:24:32;;;;;;;20.17;4.70;;;5.80;1.00;;;;;;5098397;28;20496;-61
2022/01/28 09:26:59;;;;;;;21.73;4.87;;;6.10;1.00;;;;;;5098461;28;20443;-62
2022/01/28 09:29:30;;;;;;;16.07;4.47;;;6.00;99.90;;;;;;5098693;28;20955;-61
2022/01/28 09:32:00;;;;;;;14.90;4.87;;;6.30;99.90;;;;;;5098534;28;20492;-61
2022/01/28 09:34:31;;;;;;;19.93;4.80;;;6.30;88.00;;;;;;5097563;28;20487;-61
2022/01/28 09:36:58;;;;;;;16.70;5.30;;;6.50;97.70;;;;;;5097710;28;20456;-62
2022/01/28 09:39:25;;;;;;;13.70;4.87;;;6.50;1.00;;;;;;5098242;28;20843;-61
2022/01/28 09:41:59;;;;;;;14.03;4.53;;;6.70;1.00;;;;;;5134284;27;20547;-62
2022/01/28 09:44:29;;;;;;;13.13;4.03;;;6.50;1.00;;;;;;5138921;27;20803;-61
2022/01/28 09:46:59;;;;;;;25.77;5.10;;;6.60;1.00;;;;;;5138631;27;20512;-61
2022/01/28 09:49:29;;;;;;;13.03;4.43;;;6.70;1.00;;;;;;5138563;27;20494;-60
2022/01/28 09:51:56;;;;;;;14.83;6.00;;;6.80;1.00;;;;;;5138576;27;20510;-61
2022/01/28 09:54:24;;;;;;;12.97;4.03;;;6.80;1.00;;;;;;5137337;27;20906;-61
2022/01/28 09:56:51;;;;;;;12.50;5.00;;;7.00;1.00;;;;;;5138666;27;20458;-61
2022/01/28 09:59:21;;;;;;;12.83;4.17;;;7.00;1.00;;;;;;5138388;27;20459;-61
2022/01/28 10:01:49;;;;;;;19.00;5.13;;;6.60;1.00;;;;;;5136977;27;20462;-60
2022/01/28 10:04:18;;;;;;;12.37;4.77;;;6.40;1.00;;;;;;5137980;27;20557;-60
2022/01/28 10:06:47;;;;;;;13.47;4.27;;;6.40;1.00;;;;;;5137881;27;20454;-61
2022/01/28 10:09:19;;;;;;;13.90;4.80;;;6.60;1.00;;;;;;5137121;27;20455;-61
2022/01/28 10:11:51;;;;;;;12.03;4.10;;;6.40;1.00;;;;;;5138191;27;20490;-62
2022/01/28 10:14:21;;;;;;;17.83;5.57;;;6.10;1.00;;;;;;5138504;27;20470;-61
2022/01/28 10:16:57;;;;;;;18.63;4.20;;;6.40;1.00;;;;;;5136745;27;20463;-62
2022/01/28 10:19:28;;;;;;;14.37;5.30;;;6.50;1.00;;;;;;5137205;27;20485;-62
2022/01/28 10:21:58;;;;;;;14.80;4.60;;;6.70;1.00;;;;;;5138609;27;20526;-62
2022/01/28 10:24:28;;;;;;;16.80;4.27;;;7.30;1.00;;;;;;5138178;27;20768;-62
2022/01/28 10:26:59;;;;;;;14.90;5.10;;;7.70;1.00;;;;;;5137336;27;20470;-62
2022/01/28 10:29:28;;;;;;;25.23;5.30;;;7.40;1.00;;;;;;5137762;27;20771;-62
2022/01/28 10:31:56;;;;;;;17.50;5.60;;;7.30;1.00;;;;;;5137943;27;20535;-61
2022/01/28 10:34:30;;;;;;;16.73;5.10;;;7.40;1.00;;;;;;5137824;27;20900;-61
2022/01/28 10:37:20;;;;;;;22.20;6.57;;;7.20;1.00;;;;;;5133498;27;20523;-62
2022/01/28 10:39:52;;;;;;;21.40;5.70;;;7.30;1.00;;;;;;5137869;27;20459;-60
2022/01/28 10:42:22;;;;;;;12.87;4.70;;;7.30;1.00;;;;;;5137115;27;20902;-61
2022/01/28 10:44:55;;;;;;;19.90;5.40;;;7.40;1.00;;;;;;5137687;27;20492;-62
2022/01/28 10:47:37;;;;;;;12.50;6.17;;;7.30;1.00;;;;;;5136331;27;20462;-62
2022/01/28 10:50:25;;;;;;;14.70;5.73;;;6.80;1.00;;;;;;5116798;28;20463;-62
2022/01/28 10:53:06;;;;;;;14.43;6.20;;;6.40;1.00;;;;;;5115462;28;20498;-60
2022/01/28 10:55:35;;;;;;;12.20;5.23;;;6.30;1.00;;;;;;5116698;28;20467;-63
2022/01/28 10:58:04;;;;;;;19.57;6.07;;;6.50;1.00;;;;;;5131210;28;20545;-62
2022/01/28 11:00:37;;;;;;;19.67;6.70;;;6.30;1.00;;;;;;5137113;28;20811;-62
2022/01/28 11:03:08;;;;;;;19.57;5.03;;;6.10;1.00;;;;;;5137547;28;20458;-62
2022/01/28 11:05:38;;;;;;;14.00;4.70;;;6.20;1.00;;;;;;5138375;28;20458;-62
2022/01/28 11:08:11;;;;;;;14.20;4.60;;;6.40;1.00;;;;;;5136854;28;20903;-62
2022/01/28 11:10:42;;;;;;;15.60;4.67;;;6.20;1.00;;;;;;5138030;28;20850;-61
2022/01/28 11:13:10;;;;;;;21.00;5.10;;;6.30;1.00;;;;;;5138732;27;20490;-61
2022/01/28 11:15:37;;;;;;;11.83;4.57;;;6.30;1.00;;;;;;5141538;27;20425;-60
2022/01/28 11:18:10;;;;;;;17.10;4.40;;;6.50;1.00;;;;;;5140787;27;20530;-61
2022/01/28 11:20:44;;;;;;;11.70;4.70;;;6.40;1.00;;;;;;5124946;27;20453;-62
2022/01/28 11:23:21;;;;;;;20.03;4.67;;;6.30;1.00;;;;;;5141322;27;20450;-62
2022/01/28 11:26:04;;;;;;;12.73;5.00;;;6.40;1.00;;;;;;5140218;27;20466;-62
2022/01/28 11:28:44;;;;;;;17.53;4.23;;;6.40;1.00;;;;;;5140391;27;20491;-62
2022/01/28 11:31:16;;;;;;;15.70;4.70;;;6.40;1.00;;;;;;5141511;27;20815;-61
2022/01/28 11:33:44;;;;;;;11.23;4.20;;;6.30;1.00;;;;;;5141984;27;20507;-62
2022/01/28 11:36:33;;;;;;;14.37;4.33;;;6.40;1.00;;;;;;5131038;27;20426;-61
2022/01/28 11:39:08;;;;;;;17.87;4.77;;;6.50;1.00;;;;;;5127462;27;20762;-60
2022/01/28 11:41:36;;;;;;;13.13;4.40;;;7.40;1.00;;;;;;5121291;27;20485;-61
2022/01/28 11:44:03;;;;;;;15.87;5.50;;;8.50;1.00;;;;;;5141297;27;20784;-60
2022/01/28 11:46:37;;;;;;;14.70;4.20;;;9.10;1.00;;;;;;5141442;27;20895;-61
2022/01/28 11:49:23;;;;;;;11.67;4.73;;;9.90;1.00;;;;;;5140788;27;20469;-61
2022/01/28 11:51:51;;;;;;;14.23;4.70;;;9.90;1.00;;;;;;5141280;27;20497;-61
2022/01/28 11:54:37;;;;;;;12.43;4.43;;;10.10;1.00;;;;;;5141054;27;20919;-60
2022/01/28 11:57:16;;;;;;;9.87;4.10;;;9.30;1.00;;;;;;5141610;27;20462;-61
2022/01/28 11:59:44;;;;;;;20.33;4.53;;;9.00;1.00;;;;;;5141053;27;20757;-61
2022/01/28 12:02:15;;;;;;;11.70;4.07;;;8.60;1.00;;;;;;5141011;27;20425;-60
2022/01/28 12:04:46;;;;;;;12.00;3.80;;;8.20;1.00;;;;;;5140881;27;20829;-57
2022/01/28 12:07:23;;;;;;;16.57;5.40;;;8.40;1.00;;;;;;5141220;27;20486;-60
2022/01/28 12:09:51;;;;;;;11.40;4.40;;;8.60;1.00;;;;;;5140379;27;20933;-60
2022/01/28 12:12:38;;;;;;;11.40;4.30;;;8.20;1.00;;;;;;5140866;27;20490;-57
2022/01/28 12:15:13;;;;;;;13.83;5.00;;;7.90;1.00;;;;;;5143131;27;20432;-59
2022/01/28 12:17:48;;;;;;;15.67;4.57;;;7.80;1.00;;;;;;5135853;27;20469;-57
2022/01/28 12:20:44;;;;;;;14.27;4.70;;;7.50;1.00;;;;;;5139378;27;20458;-61
2022/01/28 12:23:40;;;;;;;24.13;5.07;;;7.40;1.00;;;;;;5139820;27;20459;-57
2022/01/28 12:26:08;;;;;;;21.33;5.40;;;7.30;1.00;;;;;;5139050;27;20450;-57
2022/01/28 12:28:48;;;;;;;12.83;4.50;;;8.00;1.00;;;;;;5140337;27;20490;-61
2022/01/28 12:31:20;;;;;;;11.57;4.07;;;8.80;1.00;;;;;;5140821;27;20458;-61
2022/01/28 12:33:52;;;;;;;11.67;4.73;;;9.00;1.00;;;;;;5140506;27;20518;-59
2022/01/28 12:36:29;;;;;;;15.13;6.47;;;9.20;1.00;;;;;;5139680;27;20514;-61
2022/01/28 12:39:09;;;;;;;12.33;6.90;;;9.50;1.00;;;;;;5140300;27;20541;-59
2022/01/28 12:41:50;;;;;;;20.80;8.27;;;9.70;1.00;;;;;;5140664;27;20933;-58
2022/01/28 12:44:18;;;;;;;18.17;7.80;;;9.60;1.00;;;;;;5140047;27;20465;-61
2022/01/28 12:46:54;;;;;;;16.60;7.27;;;9.20;1.00;;;;;;5138664;27;20459;-58
2022/01/28 12:49:25;;;;;;;14.87;7.53;;;8.80;1.00;;;;;;5138573;27;20511;-59
2022/01/28 12:51:55;;;;;;;17.07;6.33;;;9.30;1.00;;;;;;5139630;27;20532;-58
2022/01/28 12:54:42;;;;;;;12.20;5.70;;;8.70;1.00;;;;;;5140032;27;20707;-60
2022/01/28 12:57:10;;;;;;;15.63;6.00;;;8.60;1.00;;;;;;5139237;27;20459;-57
2022/01/28 12:59:38;;;;;;;17.63;6.70;;;8.70;1.00;;;;;;5139895;27;20466;-57
2022/01/28 13:02:08;;;;;;;11.80;6.23;;;8.50;1.00;;;;;;5140338;27;20507;-60
2022/01/28 13:05:10;;;;;;;16.97;6.70;;;7.90;1.00;;;;;;5139605;27;20469;-60
2022/01/28 13:10:32;;;;;;;16.00;6.30;;;7.30;1.00;;;;;;5139551;27;20873;-59
2022/01/28 13:13:06;;;;;;;15.27;5.43;;;7.20;1.00;;;;;;5139987;27;20494;-58
2022/01/28 13:15:37;;;;;;;11.30;5.67;;;7.40;1.00;;;;;;5139663;27;20458;-57
2022/01/28 13:18:06;;;;;;;12.73;5.80;;;7.60;1.00;;;;;;5139011;27;20896;-59
2022/01/28 13:20:34;;;;;;;12.20;5.67;;;7.30;1.00;;;;;;5120354;27;20470;-56
2022/01/28 13:23:01;;;;;;;16.10;6.10;;;7.30;1.00;;;;;;5139382;27;20511;-55
2022/01/28 13:25:31;;;;;;;14.10;7.00;;;7.30;1.00;;;;;;5139718;27;20455;-58
2022/01/28 13:28:01;;;;;;;18.17;5.90;;;7.20;1.00;;;;;;5138946;27;20481;-58
2022/01/28 13:30:33;;;;;;;19.80;5.90;;;7.20;1.00;;;;;;5139330;27;20494;-57
2022/01/28 13:33:03;;;;;;;16.10;6.63;;;7.20;1.00;;;;;;5138926;27;20486;-59
2022/01/28 13:35:32;;;;;;;15.63;6.00;;;7.00;1.00;;;;;;5139574;27;20457;-57
2022/01/28 13:38:07;;;;;;;17.80;6.07;;;6.90;1.00;;;;;;5139035;27;20466;-58
2022/01/28 13:40:39;;;;;;;10.10;5.87;;;7.10;1.00;;;;;;5138735;27;20489;-57
2022/01/28 13:43:10;;;;;;;15.53;5.47;;;7.10;1.00;;;;;;5138975;27;20488;-56
2022/01/28 13:45:48;;;;;;;11.37;5.60;;;7.00;1.00;;;;;;5139465;27;20458;-56
2022/01/28 13:48:20;;;;;;;15.60;5.80;;;7.20;1.00;;;;;;5138624;27;20459;-59
2022/01/28 13:50:49;;;;;;;11.53;4.90;;;7.20;1.00;;;;;;5139227;27;20433;-52
2022/01/28 13:56:09;;;;;;;12.80;5.57;;;7.20;1.00;;;;;;5139170;27;20446;-53
2022/01/28 13:58:54;;;;;;;15.23;5.80;;;7.40;1.00;;;;;;5138232;27;20808;-56
2022/01/28 14:01:23;;;;;;;17.23;6.13;;;7.30;1.00;;;;;;5139139;27;20429;-60
2022/01/28 14:03:53;;;;;;;10.67;6.27;;;7.10;1.00;;;;;;5137715;27;20533;-58
2022/01/28 14:06:22;;;;;;;15.37;7.10;;;7.10;1.00;;;;;;5138129;27;20433;-54
2022/01/28 14:08:52;;;;;;;16.03;7.20;;;7.20;1.00;;;;;;5137567;27;20451;-60
2022/01/28 14:11:23;;;;;;;16.23;7.57;;;7.20;1.00;;;;;;5118409;28;20455;-56
2022/01/28 14:14:15;;;;;;;15.90;6.87;;;7.20;1.00;;;;;;5128521;27;20972;-59
2022/01/28 14:16:43;;;;;;;15.00;6.03;;;7.40;1.00;;;;;;5132391;27;20462;-54